Time;durP1;ratioP1;P1;durP2;ratioP2;P2;SDS_P1;SDS_P2;PMS_P1;PMS_P2;Temp;Humidity;BMP_temperature;BMP_pressure;BME280_temperature;BME280_humidity;BME280_pressure;Samples;Min_cycle;Max_cycle;Signal;HPM_P1;HPM_P2
2022/04/19 00:01:20;;;;;;;;;;;;;;;;;;;;;
2022/04/19 00:07:44;;;;;;;;;;;;;;;;;;;;;
2022/04/19 00:11:08;;;;;;;;;;;;;;;18.38;38.83;100548.48;101673;1346;61567;-81
2022/04/19 00:13:34;;;;;;;;;;;;;;;18.38;38.83;100547.61;101676;1345;73248;-85
2022/04/19 00:19:12;;;;;;;;;;;;;;;18.38;38.85;100549.02;101591;1347;61519;-84
2022/04/19 00:22:02;;;;;;;;;;;;;;;18.38;38.87;100549.73;101765;1344;61609;-87
2022/04/19 00:27:43;;;;;;;;;;;;;;;;;;;;;
2022/04/19 00:30:32;;;;;;;;;;;;;;;18.37;38.89;100548.43;101777;1344;61191;-82
2022/04/19 00:33:11;;;;;;;;;;;;;;;18.37;38.92;100548.95;101745;1344;61546;-86
2022/04/19 00:36:26;;;;;;;;;;;;;;;18.36;38.94;100548.83;101816;1341;71622;-83
2022/04/19 00:39:24;;;;;;;;;;;;;;;18.36;38.93;100546.11;101709;1344;76795;-80
2022/04/19 00:42:10;;;;;;;;;;;;;;;;;;;;;
2022/04/19 00:45:15;;;;;;;;;;;;;;;;;;;;;
2022/04/19 00:48:05;;;;;;;;;;;;;;;18.35;38.92;100541.73;102574;1329;71907;-86
2022/04/19 00:50:52;;;;;;;;;;;;;;;18.35;38.96;100540.13;102954;1325;75975;-83
2022/04/19 00:53:33;;;;;;;;;;;;;;;;;;;;;
2022/04/19 00:56:31;;;;;;;;;;;;;;;;;;;;;
2022/04/19 00:59:07;;;;;;;;;;;;;;;;;;;;;
2022/04/19 01:02:05;;;;;;;;;;;;;;;18.34;38.99;100528.63;104129;1316;75817;-84
2022/04/19 01:05:01;;;;;;;;;;;;;;;;;;;;;
2022/04/19 01:07:30;;;;;;;;;;;;;;;18.34;38.94;100528.83;104027;1316;61206;-85
2022/04/19 01:09:59;;;;;;;;;;;;;;;18.34;38.94;100520.27;104101;1316;72813;-83
2022/04/19 01:13:17;;;;;;;;;;;;;;;18.33;38.94;100519.41;103902;1316;73847;-86
2022/04/19 01:16:16;;;;;;;;;;;;;;;;;;;;;
2022/04/19 01:19:15;;;;;;;;;;;;;;;18.33;38.95;100519.08;104632;1307;61473;-85
2022/04/19 01:22:07;;;;;;;;;;;;;;;18.33;39.14;100513.57;104552;1309;72775;-83
2022/04/19 01:25:13;;;;;;;;;;;;;;;18.32;39.10;100512.89;104578;1309;76227;-86
2022/04/19 01:28:17;;;;;;;;;;;;;;;18.32;39.02;100509.52;104311;1313;61138;-84
2022/04/19 01:31:31;;;;;;;;;;;;;;;18.32;39.06;100510.80;104325;1313;61300;-84
2022/04/19 01:34:19;;;;;;;;;;;;;;;18.32;39.07;100508.46;104288;1315;73855;-83
2022/04/19 01:37:25;;;;;;;;;;;;;;;;;;;;;
2022/04/19 01:40:20;;;;;;;;;;;;;;;18.31;39.07;100506.18;103586;1319;61214;-85
2022/04/19 01:43:35;;;;;;;;;;;;;;;18.31;39.04;100506.88;103583;1319;61513;-84
2022/04/19 01:46:43;;;;;;;;;;;;;;;;;;;;;
2022/04/19 01:49:35;;;;;;;;;;;;;;;;;;;;;
2022/04/19 01:52:32;;;;;;;;;;;;;;;18.31;39.09;100510.13;102822;1325;61210;-83
2022/04/19 01:55:28;;;;;;;;;;;;;;;;;;;;;
2022/04/19 01:58:25;;;;;;;;;;;;;;;;;;;;;
2022/04/19 02:01:12;;;;;;;;;;;;;;;;;;;;;
2022/04/19 02:03:43;;;;;;;;;;;;;;;18.31;39.11;100501.77;101902;1339;61351;-83
2022/04/19 02:06:53;;;;;;;;;;;;;;;18.30;39.06;100499.84;102177;1334;61624;-83
2022/04/19 02:09:48;;;;;;;;;;;;;;;18.30;39.09;100498.25;102264;1335;73949;-78
2022/04/19 02:12:27;;;;;;;;;;;;;;;18.30;39.11;100499.85;102303;1335;74805;-82
2022/04/19 02:15:31;;;;;;;;;;;;;;;18.30;39.07;100500.39;102192;1334;61372;-84
2022/04/19 02:18:31;;;;;;;;;;;;;;;18.30;39.10;100497.20;102498;1332;61208;-81
2022/04/19 02:21:18;;;;;;;;;;;;;;;18.30;39.17;100498.95;102580;1332;73799;-83
2022/04/19 02:24:03;;;;;;;;;;;;;;;18.29;39.07;100498.65;102793;1326;75714;-83
2022/04/19 02:26:50;;;;;;;;;;;;;;;18.29;39.15;100500.79;103003;1325;61231;-84
2022/04/19 02:32:58;;;;;;;;;;;;;;;18.29;39.04;100501.73;102704;1325;74062;-85
2022/04/19 02:35:36;;;;;;;;;;;;;;;;;;;;;
2022/04/19 02:38:14;;;;;;;;;;;;;;;18.28;39.23;100504.25;104154;1312;61303;-84
2022/04/19 02:41:10;;;;;;;;;;;;;;;;;;;;;
2022/04/19 02:44:23;;;;;;;;;;;;;;;;;;;;;
2022/04/19 02:47:15;;;;;;;;;;;;;;;18.28;39.19;100505.70;104402;1312;75960;-85
2022/04/19 02:53:17;;;;;;;;;;;;;;;18.28;39.24;100503.22;104307;1312;61125;-83
2022/04/19 02:56:45;;;;;;;;;;;;;;;18.28;39.24;100505.88;104416;1312;72740;-82
2022/04/19 02:59:26;;;;;;;;;;;;;;;18.27;39.14;100514.98;104295;1313;73572;-86
2022/04/19 03:02:22;;;;;;;;;;;;;;;18.27;39.29;100521.04;104343;1313;61212;-83
2022/04/19 03:05:39;;;;;;;;;;;;;;;18.27;39.33;100522.46;104307;1313;61426;-84
2022/04/19 03:08:17;;;;;;;;;;;;;;;18.27;39.17;100528.86;103790;1318;73654;-82
2022/04/19 03:11:21;;;;;;;;;;;;;;;18.27;39.20;100533.87;104200;1314;74785;-85
2022/04/19 03:14:17;;;;;;;;;;;;;;;18.26;39.29;100535.69;103566;1319;61166;-82
2022/04/19 03:17:12;;;;;;;;;;;;;;;18.26;39.15;100541.02;103101;1324;61364;-85
2022/04/19 03:20:29;;;;;;;;;;;;;;;18.26;39.36;100546.56;102943;1324;73870;-87
2022/04/19 03:29:37;;;;;;;;;;;;;;;;;;;;;
2022/04/19 03:32:44;;;;;;;;;;;;;;;18.26;39.34;100559.41;103072;1324;73530;-83
2022/04/19 03:35:39;;;;;;;;;;;;;;;;;;;;;
2022/04/19 03:39:03;;;;;;;;;;;;;;;;;;;;;
2022/04/19 03:42:20;;;;;;;;;;;;;;;18.25;39.38;100569.79;102569;1332;61715;-79
2022/04/19 03:45:27;;;;;;;;;;;;;;;18.25;39.33;100571.77;102543;1327;72880;-81
2022/04/19 03:48:08;;;;;;;;;;;;;;;18.25;39.28;100576.91;102811;1326;76303;-80
2022/04/19 03:51:05;;;;;;;;;;;;;;;;;;;;;
2022/04/19 03:54:04;;;;;;;;;;;;;;;;;;;;;
2022/04/19 03:57:10;;;;;;;;;;;;;;;;;;;;;
2022/04/19 04:00:00;;;;;;;;;;;;;;;18.25;39.34;100584.25;102596;1329;75905;-82
2022/04/19 04:03:09;;;;;;;;;;;;;;;18.25;39.46;100585.29;102559;1326;61323;-85
2022/04/19 04:05:55;;;;;;;;;;;;;;;18.25;39.36;100587.61;102482;1331;61209;-84
2022/04/19 04:08:48;;;;;;;;;;;;;;;;;;;;;
2022/04/19 04:11:57;;;;;;;;;;;;;;;;;;;;;
2022/04/19 04:14:46;;;;;;;;;;;;;;;18.25;39.37;100602.05;102848;1323;61224;-82
2022/04/19 04:17:45;;;;;;;;;;;;;;;18.25;39.34;100604.90;102543;1331;61243;-83
2022/04/19 04:21:06;;;;;;;;;;;;;;;18.24;39.35;100610.46;102547;1332;72756;-81
2022/04/19 04:23:47;;;;;;;;;;;;;;;18.24;39.24;100611.92;102510;1332;73592;-83
2022/04/19 04:26:45;;;;;;;;;;;;;;;18.23;39.15;100614.29;102143;1336;61338;-82
2022/04/19 04:29:41;;;;;;;;;;;;;;;;;;;;;
2022/04/19 04:32:53;;;;;;;;;;;;;;;;;;;;;
2022/04/19 04:36:03;;;;;;;;;;;;;;;18.19;39.09;100622.17;101902;1338;73502;-84
2022/04/19 04:38:28;;;;;;;;;;;;;;;18.19;39.07;100625.23;101988;1338;61336;-83
2022/04/19 04:41:09;;;;;;;;;;;;;;;18.19;39.06;100628.80;101917;1338;61394;-82
2022/04/19 04:44:29;;;;;;;;;;;;;;;;;;;;;
2022/04/19 04:51:05;;;;;;;;;;;;;;;18.19;38.88;100633.92;101800;1345;61274;-82
2022/04/19 04:53:37;;;;;;;;;;;;;;;18.22;38.85;100640.02;101884;1342;61372;-79
2022/04/19 04:56:42;;;;;;;;;;;;;;;18.25;38.74;100643.88;102045;1338;73145;-83
2022/04/19 04:59:56;;;;;;;;;;;;;;;18.30;38.82;100642.55;102117;1335;76273;-84
2022/04/19 05:02:47;;;;;;;;;;;;;;;18.35;38.77;100647.22;102092;1335;61823;-81
2022/04/19 05:05:41;;;;;;;;;;;;;;;18.41;38.82;100648.83;102319;1333;61191;-82
2022/04/19 05:08:54;;;;;;;;;;;;;;;18.47;38.79;100648.98;102296;1335;71962;-86
2022/04/19 05:11:50;;;;;;;;;;;;;;;;;;;;;
2022/04/19 05:14:59;;;;;;;;;;;;;;;18.60;38.82;100657.59;102238;1333;61356;-84
2022/04/19 05:17:45;;;;;;;;;;;;;;;18.67;38.74;100661.95;101815;1341;61423;-83
2022/04/19 05:20:18;;;;;;;;;;;;;;;18.73;38.72;100662.66;101774;1342;72752;-81
2022/04/19 05:23:22;;;;;;;;;;;;;;;18.81;38.68;100664.33;102061;1337;74617;-81
2022/04/19 05:25:57;;;;;;;;;;;;;;;;;;;;;
2022/04/19 05:28:55;;;;;;;;;;;;;;;18.91;38.70;100668.34;102323;1335;61287;-83
2022/04/19 05:31:59;;;;;;;;;;;;;;;18.96;38.74;100673.04;102259;1335;71458;-85
2022/04/19 05:34:53;;;;;;;;;;;;;;;19.00;38.72;100671.48;102270;1335;76267;-83
2022/04/19 05:37:28;;;;;;;;;;;;;;;19.05;38.80;100676.37;102337;1335;61200;-86
2022/04/19 05:40:12;;;;;;;;;;;;;;;19.08;38.76;100678.85;102339;1335;61300;-82
2022/04/19 05:42:40;;;;;;;;;;;;;;;19.12;38.71;100682.87;102563;1329;72699;-82
2022/04/19 05:45:26;;;;;;;;;;;;;;;19.15;38.71;100681.09;102701;1323;74713;-81
2022/04/19 05:47:59;;;;;;;;;;;;;;;19.18;38.63;100685.89;103130;1318;61249;-83
2022/04/19 05:51:02;;;;;;;;;;;;;;;;;;;;;
2022/04/19 05:53:35;;;;;;;;;;;;;;;19.23;38.66;100690.17;104028;1316;72949;-82
2022/04/19 05:56:01;;;;;;;;;;;;;;;19.25;38.73;100692.73;104618;1307;74516;-85
2022/04/19 05:58:52;;;;;;;;;;;;;;;19.27;38.68;100692.96;104490;1308;61339;-85
2022/04/19 06:04:56;;;;;;;;;;;;;;;19.29;38.64;100701.58;104404;1308;72356;-82
2022/04/19 06:07:46;;;;;;;;;;;;;;;19.30;38.71;100702.98;104510;1306;74664;-81
2022/04/19 06:10:22;;;;;;;;;;;;;;;19.30;38.78;100706.70;104441;1309;59100;-85
2022/04/19 06:13:14;;;;;;;;;;;;;;;19.31;38.74;100709.67;104591;1309;61494;-82
2022/04/19 06:16:20;;;;;;;;;;;;;;;19.31;38.66;100713.23;104583;1309;71490;-84
2022/04/19 06:19:15;;;;;;;;;;;;;;;19.32;38.74;100712.95;104230;1313;73538;-82
2022/04/19 06:22:04;;;;;;;;;;;;;;;19.33;38.83;100711.48;104376;1312;61206;-84
2022/04/19 06:24:32;;;;;;;;;;;;;;;19.33;38.71;100717.00;104359;1312;61345;-81
2022/04/19 06:27:18;;;;;;;;;;;;;;;19.33;38.92;100718.62;104200;1312;71308;-80
2022/04/19 06:29:47;;;;;;;;;;;;;;;19.33;38.92;100720.04;104370;1312;61463;-82
2022/04/19 06:32:53;;;;;;;;;;;;;;;19.34;38.84;100721.60;104272;1312;61631;-81
2022/04/19 06:35:57;;;;;;;;;;;;;;;;;;;;;
2022/04/19 06:38:30;;;;;;;;;;;;;;;19.35;38.89;100721.89;104320;1312;73758;-83
2022/04/19 06:40:59;;;;;;;;;;;;;;;19.36;38.87;100721.11;104205;1312;73752;-84
2022/04/19 06:43:33;;;;;;;;;;;;;;;19.36;38.84;100727.36;104206;1312;61341;-85
2022/04/19 06:46:59;;;;;;;;;;;;;;;;;;;;;
2022/04/19 06:49:45;;;;;;;;;;;;;;;19.36;38.99;100727.37;100404;1312;5395477;-83
2022/04/19 06:52:18;;;;;;;;;;;;;;;19.36;38.99;100727.86;103726;1318;75855;-80
2022/04/19 06:55:04;;;;;;;;;;;;;;;19.36;39.03;100732.52;103264;1321;61312;-82
2022/04/19 06:57:54;;;;;;;;;;;;;;;19.37;38.98;100729.08;103803;1318;61436;-82
2022/04/19 07:01:01;;;;;;;;;;;;;;;19.37;39.00;100731.02;104029;1317;73082;-83
2022/04/19 07:03:40;;;;;;;;;;;;;;;;;;;;;
2022/04/19 07:06:49;;;;;;;;;;;;;;;19.37;39.04;100738.34;103102;1322;61767;-78
2022/04/19 07:09:17;;;;;;;;;;;;;;;19.37;39.06;100736.72;103234;1323;61181;-79
2022/04/19 07:11:59;;;;;;;;;;;;;;;19.37;39.03;100734.40;103280;1322;74226;-80
2022/04/19 07:14:45;;;;;;;;;;;;;;;19.38;39.11;100736.35;103258;1322;74748;-88
2022/04/19 07:17:40;;;;;;;;;;;;;;;19.38;39.04;100739.21;102758;1329;61442;-81
2022/04/19 07:29:51;;;;;;;;;;;;;;;19.38;39.19;100742.92;102707;1326;61373;-84
2022/04/19 07:32:28;;;;;;;;;;;;;;;19.38;39.20;100746.35;102877;1326;61201;-83
2022/04/19 07:35:07;;;;;;;;;;;;;;;;;;;;;
2022/04/19 07:37:53;;;;;;;;;;;;;;;19.38;39.26;100745.78;102794;1326;75840;-87
2022/04/19 07:40:21;;;;;;;;;;;;;;;19.39;39.23;100751.23;103162;1320;61367;-81
2022/04/19 07:43:27;;;;;;;;;;;;;;;19.39;39.18;100751.41;103401;1319;61215;-85
2022/04/19 07:46:15;;;;;;;;;;;;;;;19.39;39.26;100756.39;103525;1319;72833;-82
2022/04/19 07:48:48;;;;;;;;;;;;;;;19.40;39.39;100755.34;103402;1319;74889;-85
2022/04/19 07:51:22;;;;;;;;;;;;;;;19.39;39.41;100757.48;103597;1319;61384;-82
2022/04/19 07:54:09;;;;;;;;;;;;;;;19.39;39.24;100754.64;103659;1315;61648;-81
2022/04/19 07:57:20;;;;;;;;;;;;;;;19.39;39.33;100754.80;104321;1313;74366;-87
2022/04/19 07:59:51;;;;;;;;;;;;;;;19.39;39.43;100761.77;104176;1313;73634;-86
2022/04/19 08:02:31;;;;;;;;;;;;;;;;;;;;;
2022/04/19 08:05:17;;;;;;;;;;;;;;;19.39;39.36;100771.77;104606;1307;61765;-84
2022/04/19 08:08:06;;;;;;;;;;;;;;;19.40;39.41;100773.85;104651;1306;72756;-82
2022/04/19 08:10:52;;;;;;;;;;;;;;;;;;;;;
2022/04/19 08:13:22;;;;;;;;;;;;;;;19.40;39.42;100767.06;104565;1308;61445;-82
2022/04/19 08:16:49;;;;;;;;;;;;;;;19.41;39.56;100765.95;104578;1309;61265;-85
2022/04/19 08:19:25;;;;;;;;;;;;;;;19.41;39.42;100764.30;104279;1313;73186;-82
2022/04/19 08:22:11;;;;;;;;;;;;;;;19.42;39.58;100764.99;104303;1312;74639;-82
2022/04/19 08:24:41;;;;;;;;;;;;;;;19.42;39.45;100767.32;104349;1312;61331;-79
2022/04/19 08:27:29;;;;;;;;;;;;;;;19.42;39.51;100767.64;104330;1312;61189;-83
2022/04/19 08:30:02;;;;;;;;;;;;;;;19.43;39.63;100767.79;104365;1312;73840;-82
2022/04/19 08:32:59;;;;;;;;;;;;;;;19.43;39.46;100766.34;104189;1315;73449;-85
2022/04/19 08:36:06;;;;;;;;;;;;;;;19.43;39.53;100763.66;104261;1313;61313;-82
2022/04/19 08:38:52;;;;;;;;;;;;;;;19.43;39.68;100763.64;104353;1312;61528;-85
2022/04/19 08:41:27;;;;;;;;;;;;;;;19.45;39.54;100761.41;104277;1312;73069;-82
2022/04/19 08:44:03;;;;;;;;;;;;;;;19.45;39.65;100764.08;104262;1313;74765;-81
2022/04/19 08:46:41;;;;;;;;;;;;;;;19.45;39.63;100760.68;104281;1313;61301;-84
2022/04/19 08:49:27;;;;;;;;;;;;;;;;;;;;;
2022/04/19 08:52:27;;;;;;;;;;;;;;;;;;;;;
2022/04/19 08:58:00;;;;;;;;;;;;;;;19.48;39.63;100767.67;104407;1312;61209;-87
2022/04/19 09:00:45;;;;;;;;;;;;;;;;;;;;;
2022/04/19 09:03:21;;;;;;;;;;;;;;;19.48;39.71;100764.59;104511;1309;72721;-83
2022/04/19 09:05:52;;;;;;;;;;;;;;;19.48;39.82;100764.23;104503;1309;73974;-83
2022/04/19 09:08:50;;;;;;;;;;;;;;;19.49;39.78;100762.02;104318;1312;61613;-85
2022/04/19 09:11:24;;;;;;;;;;;;;;;19.50;39.81;100760.21;104485;1308;61294;-86
2022/04/19 09:14:10;;;;;;;;;;;;;;;19.50;39.66;100765.18;104624;1309;72562;-82
2022/04/19 09:16:41;;;;;;;;;;;;;;;19.50;39.84;100757.54;104574;1308;75673;-82
2022/04/19 09:19:27;;;;;;;;;;;;;;;19.50;39.82;100759.86;104580;1309;61246;-86
2022/04/19 09:21:53;;;;;;;;;;;;;;;19.50;39.84;100758.60;104523;1309;61512;-84
2022/04/19 09:24:56;;;;;;;;;;;;;;;19.51;39.69;100757.11;104350;1309;74815;-81
2022/04/19 09:27:36;;;;;;;;;;;;;;;19.52;39.80;100755.27;104737;1305;74678;-80
2022/04/19 09:30:37;;;;;;;;;;;;;;;19.52;39.87;100750.98;104502;1306;61729;-82
2022/04/19 09:33:24;;;;;;;;;;;;;;;19.52;39.90;100746.09;104800;1304;62318;-83
2022/04/19 09:36:13;;;;;;;;;;;;;;;19.54;39.93;100747.27;104740;1306;73897;-81
2022/04/19 09:38:59;;;;;;;;;;;;;;;19.55;39.81;100744.71;104720;1306;76208;-84
2022/04/19 09:41:31;;;;;;;;;;;;;;;19.56;39.82;100746.61;104151;1315;61605;-81
2022/04/19 09:44:29;;;;;;;;;;;;;;;19.56;39.93;100749.09;104094;1315;61268;-83
2022/04/19 09:47:07;;;;;;;;;;;;;;;19.57;39.92;100750.95;104185;1315;73750;-82
2022/04/19 09:50:05;;;;;;;;;;;;;;;19.58;39.88;100753.21;104213;1315;76037;-82
2022/04/19 09:52:48;;;;;;;;;;;;;;;19.59;39.90;100752.10;104123;1315;61186;-83
2022/04/19 09:55:23;;;;;;;;;;;;;;;19.59;40.07;100750.13;104137;1315;61288;-81
2022/04/19 09:58:02;;;;;;;;;;;;;;;19.60;40.01;100750.99;104049;1315;72943;-82
2022/04/19 10:00:40;;;;;;;;;;;;;;;19.59;40.01;100749.20;103793;1315;75625;-82
2022/04/19 10:09:24;;;;;;;;;;;;;;;;;;;;;
2022/04/19 10:12:01;;;;;;;;;;;;;;;19.62;40.07;100747.46;104057;1315;74477;-81
2022/04/19 10:14:28;;;;;;;;;;;;;;;19.62;40.04;100747.13;104063;1315;61453;-88
2022/04/19 10:17:15;;;;;;;;;;;;;;;19.62;40.06;100744.98;104116;1315;61572;-82
2022/04/19 10:19:50;;;;;;;;;;;;;;;19.62;40.18;100742.25;104507;1305;74616;-80
2022/04/19 10:22:16;;;;;;;;;;;;;;;19.62;40.03;100735.46;104536;1306;75720;-81
2022/04/19 10:24:54;;;;;;;;;;;;;;;19.62;40.17;100733.48;104698;1305;61429;-82
2022/04/19 10:27:40;;;;;;;;;;;;;;;19.63;40.19;100732.02;104699;1306;61297;-83
2022/04/19 10:30:34;;;;;;;;;;;;;;;;;;;;;
2022/04/19 10:33:09;;;;;;;;;;;;;;;19.64;40.10;100727.88;104553;1306;75019;-80
2022/04/19 10:35:55;;;;;;;;;;;;;;;19.65;40.08;100726.75;104440;1306;61260;-80
2022/04/19 10:38:29;;;;;;;;;;;;;;;19.66;40.21;100726.13;104631;1306;61142;-83
2022/04/19 10:41:02;;;;;;;;;;;;;;;19.66;40.17;100723.60;104545;1306;73019;-80
2022/04/19 10:43:31;;;;;;;;;;;;;;;19.66;40.23;100717.89;104511;1306;74562;-80
2022/04/19 10:46:24;;;;;;;;;;;;;;;19.68;40.19;100719.06;104584;1306;61310;-84
2022/04/19 10:49:08;;;;;;;;;;;;;;;19.68;40.20;100716.34;104412;1306;61266;-82
2022/04/19 10:52:00;;;;;;;;;;;;;;;19.69;40.12;100715.21;104699;1306;73938;-81
2022/04/19 10:54:56;;;;;;;;;;;;;;;;;;;;;
2022/04/19 11:00:31;;;;;;;;;;;;;;;19.71;40.30;100715.05;104752;1306;61755;-81
2022/04/19 11:04:15;;;;;;;;;;;;;;;19.72;40.21;100716.27;104121;1312;71576;-81
2022/04/19 11:06:53;;;;;;;;;;;;;;;19.73;40.17;100716.39;104085;1315;76159;-82
2022/04/19 11:09:20;;;;;;;;;;;;;;;19.73;40.15;100710.80;104230;1312;61173;-81
2022/04/19 11:12:38;;;;;;;;;;;;;;;19.74;40.29;100709.15;104216;1312;63071;-81
2022/04/19 11:15:33;;;;;;;;;;;;;;;19.75;40.07;100708.73;104178;1315;72973;-81
2022/04/19 11:19:03;;;;;;;;;;;;;;;19.75;40.17;100705.52;104073;1315;74862;-82
2022/04/19 11:21:56;;;;;;;;;;;;;;;;;;;;;
2022/04/19 11:24:43;;;;;;;;;;;;;;;19.77;40.20;100701.63;104210;1312;61199;-83
2022/04/19 11:27:38;;;;;;;;;;;;;;;19.78;40.19;100702.09;104144;1315;72648;-81
2022/04/19 11:30:19;;;;;;;;;;;;;;;19.79;40.41;100699.71;104102;1312;74270;-83
2022/04/19 11:32:55;;;;;;;;;;;;;;;19.80;40.20;100700.04;104129;1315;61465;-81
2022/04/19 11:35:33;;;;;;;;;;;;;;;19.80;40.19;100695.18;104330;1312;61166;-81
2022/04/19 11:38:18;;;;;;;;;;;;;;;19.81;40.27;100691.05;103606;1318;74192;-83
2022/04/19 11:47:16;;;;;;;;;;;;;;;;;;;;;
2022/04/19 11:49:52;;;;;;;;;;;;;;;19.83;40.39;100681.98;103396;1318;72621;-88
2022/04/19 11:52:32;;;;;;;;;;;;;;;19.84;40.23;100678.52;103770;1318;74923;-81
2022/04/19 11:55:38;;;;;;;;;;;;;;;19.85;40.40;100678.65;103585;1318;61352;-81
2022/04/19 11:58:33;;;;;;;;;;;;;;;19.86;40.22;100676.98;103052;1324;61211;-83
2022/04/19 12:01:39;;;;;;;;;;;;;;;19.86;40.26;100672.09;102628;1327;71786;-80
2022/04/19 12:04:45;;;;;;;;;;;;;;;19.87;40.24;100669.52;102735;1329;76432;-82
2022/04/19 12:07:19;;;;;;;;;;;;;;;19.89;40.18;100667.12;102696;1327;61346;-83
2022/04/19 12:10:23;;;;;;;;;;;;;;;19.89;40.14;100664.41;102705;1330;61406;-82
2022/04/19 12:13:10;;;;;;;;;;;;;;;;;;;;;
2022/04/19 12:15:41;;;;;;;;;;;;;;;19.90;40.17;100673.25;102724;1324;74868;-81
2022/04/19 12:18:31;;;;;;;;;;;;;;;19.91;40.44;100675.20;103187;1318;61356;-80
2022/04/19 12:20:56;;;;;;;;;;;;;;;19.90;40.37;100681.09;103597;1318;61367;-82
2022/04/19 12:23:22;;;;;;;;;;;;;;;19.91;40.24;100678.40;103595;1318;61753;-80
2022/04/19 12:26:04;;;;;;;;;;;;;;;19.91;40.20;100679.96;103392;1318;61334;-80
2022/04/19 12:28:44;;;;;;;;;;;;;;;19.91;40.35;100684.10;103632;1316;61786;-83
2022/04/19 12:31:38;;;;;;;;;;;;;;;19.91;40.23;100683.39;103503;1318;61449;-82
2022/04/19 12:34:10;;;;;;;;;;;;;;;19.91;40.12;100686.06;103369;1318;73622;-82
2022/04/19 12:36:55;;;;;;;;;;;;;;;19.91;40.29;100687.73;104077;1315;75816;-79
2022/04/19 12:39:43;;;;;;;;;;;;;;;19.90;40.33;100688.42;104529;1309;61212;-85
2022/04/19 12:42:12;;;;;;;;;;;;;;;19.90;40.27;100690.78;104684;1307;61184;-83
2022/04/19 12:45:01;;;;;;;;;;;;;;;19.90;40.25;100692.60;104675;1309;73173;-84
2022/04/19 12:47:50;;;;;;;;;;;;;;;19.90;40.25;100693.98;104647;1309;74804;-82
2022/04/19 12:50:21;;;;;;;;;;;;;;;19.91;40.39;100692.69;104611;1309;61291;-84
2022/04/19 12:52:56;;;;;;;;;;;;;;;19.91;40.06;100685.92;104612;1309;61131;-81
2022/04/19 12:55:58;;;;;;;;;;;;;;;19.91;40.22;100686.98;104674;1307;72749;-83
2022/04/19 12:58:27;;;;;;;;;;;;;;;19.91;40.30;100687.86;104299;1314;74706;-85
2022/04/19 13:01:05;;;;;;;;;;;;;;;19.90;40.30;100686.98;104240;1315;61257;-90
2022/04/19 13:03:58;;;;;;;;;;;;;;;19.91;40.29;100686.45;104314;1315;61243;-85
2022/04/19 13:12:26;;;;;;;;;;;;;;;19.91;40.48;100680.52;104601;1313;61046;-82
2022/04/19 13:15:14;;;;;;;;;;;;;;;19.92;40.44;100676.76;104307;1314;61680;-83
2022/04/19 13:18:03;;;;;;;;;;;;;;;19.92;40.29;100675.80;103860;1318;71785;-83
2022/04/19 13:20:48;;;;;;;;;;;;;;;19.92;40.34;100672.58;102869;1326;74834;-85
2022/04/19 13:23:17;;;;;;;;;;;;;;;19.93;40.36;100665.77;102683;1326;61298;-81
2022/04/19 13:25:52;;;;;;;;;;;;;;;19.93;40.32;100665.00;102728;1326;61929;-80
2022/04/19 13:28:26;;;;;;;;;;;;;;;19.94;40.34;100663.73;102639;1326;72854;-80
2022/04/19 13:31:09;;;;;;;;;;;;;;;19.95;40.36;100657.27;102657;1326;75922;-83
2022/04/19 13:33:35;;;;;;;;;;;;;;;19.96;40.39;100654.69;102702;1326;61426;-84
2022/04/19 13:36:12;;;;;;;;;;;;;;;19.96;40.35;100655.75;103089;1320;61886;-86
2022/04/19 13:38:49;;;;;;;;;;;;;;;19.96;40.47;100648.77;103295;1320;72861;-83
2022/04/19 13:41:15;;;;;;;;;;;;;;;19.97;40.24;100647.84;103475;1320;75794;-85
2022/04/19 13:44:06;;;;;;;;;;;;;;;19.96;40.45;100649.30;103489;1320;61382;-83
2022/04/19 13:46:44;;;;;;;;;;;;;;;19.97;40.43;100646.77;103222;1322;61355;-81
2022/04/19 13:49:37;;;;;;;;;;;;;;;19.97;40.37;100646.40;103225;1323;74141;-78
2022/04/19 13:52:23;;;;;;;;;;;;;;;19.97;40.34;100646.72;102735;1326;74542;-81
2022/04/19 13:55:32;;;;;;;;;;;;;;;19.97;40.35;100649.73;102892;1322;61313;-85
2022/04/19 13:58:18;;;;;;;;;;;;;;;19.98;40.42;100647.01;103662;1314;61411;-81
2022/04/19 14:00:52;;;;;;;;;;;;;;;19.99;40.30;100642.67;104216;1314;73875;-82
2022/04/19 14:03:31;;;;;;;;;;;;;;;20.00;40.33;100644.78;104263;1315;76031;-84
2022/04/19 14:06:01;;;;;;;;;;;;;;;20.00;40.19;100641.51;104195;1314;61302;-85
2022/04/19 14:08:49;;;;;;;;;;;;;;;20.01;40.34;100641.12;104125;1313;61282;-82
2022/04/19 14:11:38;;;;;;;;;;;;;;;20.01;40.34;100636.45;104106;1314;76323;-81
2022/04/19 14:14:07;;;;;;;;;;;;;;;20.01;40.26;100633.59;104180;1313;75854;-84
2022/04/19 14:17:00;;;;;;;;;;;;;;;;;;;;;
2022/04/19 14:19:54;;;;;;;;;;;;;;;;;;;;;
2022/04/19 14:22:28;;;;;;;;;;;;;;;19.99;40.42;100639.30;104310;1314;73043;-81
2022/04/19 14:25:15;;;;;;;;;;;;;;;;;;;;;
2022/04/19 14:27:53;;;;;;;;;;;;;;;19.95;40.31;100637.81;104227;1314;62547;-84
2022/04/19 14:33:36;;;;;;;;;;;;;;;;;;;;;
2022/04/19 14:36:13;;;;;;;;;;;;;;;19.87;40.29;100640.85;104615;1306;73980;-83
2022/04/19 14:38:45;;;;;;;;;;;;;;;19.85;40.47;100644.55;104588;1306;61385;-81
2022/04/19 14:41:21;;;;;;;;;;;;;;;19.82;40.43;100644.53;104734;1306;61279;-81
2022/04/19 14:44:01;;;;;;;;;;;;;;;19.80;40.60;100650.01;104869;1306;73810;-85
2022/04/19 14:46:47;;;;;;;;;;;;;;;19.77;40.40;100647.70;104824;1305;75180;-84
2022/04/19 14:49:20;;;;;;;;;;;;;;;19.75;40.49;100639.64;104808;1306;61456;-84
2022/04/19 14:55:13;;;;;;;;;;;;;;;19.70;40.68;100633.55;104728;1306;71454;-87
2022/04/19 14:57:51;;;;;;;;;;;;;;;19.67;40.55;100633.38;104582;1306;75952;-86
2022/04/19 15:00:27;;;;;;;;;;;;;;;19.65;40.67;100631.02;104484;1307;61176;-86
2022/04/19 15:03:16;;;;;;;;;;;;;;;19.63;40.59;100625.45;104053;1314;61275;-81
2022/04/19 15:06:10;;;;;;;;;;;;;;;19.61;40.64;100624.34;103338;1319;71632;-81
2022/04/19 15:08:41;;;;;;;;;;;;;;;19.59;40.70;100622.27;103439;1319;74956;-80
2022/04/19 15:11:41;;;;;;;;;;;;;;;19.57;40.69;100619.94;103518;1319;61314;-83
2022/04/19 15:14:31;;;;;;;;;;;;;;;;;;;;;
2022/04/19 15:17:11;;;;;;;;;;;;;;;19.54;40.62;100616.94;103558;1319;73720;-82
2022/04/19 15:19:45;;;;;;;;;;;;;;;19.52;40.78;100613.66;103465;1319;74907;-84
2022/04/19 15:22:13;;;;;;;;;;;;;;;19.51;40.75;100615.90;103559;1318;61397;-83
2022/04/19 15:24:49;;;;;;;;;;;;;;;19.49;40.93;100615.86;103230;1320;61587;-82
2022/04/19 15:27:24;;;;;;;;;;;;;;;19.48;40.86;100613.98;103402;1319;72882;-81
2022/04/19 15:29:59;;;;;;;;;;;;;;;19.47;40.84;100609.77;103698;1319;74752;-81
2022/04/19 15:32:27;;;;;;;;;;;;;;;19.45;40.94;100607.39;103455;1319;61288;-80
2022/04/19 15:35:12;;;;;;;;;;;;;;;19.44;41.17;100606.17;103294;1318;61400;-82
2022/04/19 15:38:01;;;;;;;;;;;;;;;19.43;41.07;100607.34;103230;1320;73044;-81
2022/04/19 15:40:37;;;;;;;;;;;;;;;19.42;41.10;100604.02;103738;1313;76516;-83
2022/04/19 15:43:06;;;;;;;;;;;;;;;19.41;41.07;100602.30;104281;1307;61989;-86
2022/04/19 15:45:49;;;;;;;;;;;;;;;19.39;41.10;100602.20;104684;1306;61510;-85
2022/04/19 15:48:37;;;;;;;;;;;;;;;19.39;41.19;100604.05;104276;1314;71066;-82
2022/04/19 15:51:43;;;;;;;;;;;;;;;19.38;41.11;100603.94;104198;1314;73507;-81
2022/04/19 15:54:23;;;;;;;;;;;;;;;19.36;41.04;100606.19;104289;1315;61410;-83
2022/04/19 15:57:04;;;;;;;;;;;;;;;19.35;41.13;100604.64;104288;1315;61193;-84
2022/04/19 15:59:42;;;;;;;;;;;;;;;19.35;41.23;100602.38;104297;1315;72753;-83
2022/04/19 16:02:47;;;;;;;;;;;;;;;19.33;41.23;100601.55;104280;1314;75853;-82
2022/04/19 16:05:12;;;;;;;;;;;;;;;19.32;41.23;100602.69;104036;1314;61237;-81
2022/04/19 16:07:47;;;;;;;;;;;;;;;19.32;41.32;100601.67;104018;1314;61179;-81
2022/04/19 16:10:18;;;;;;;;;;;;;;;19.31;41.15;100603.14;104017;1316;72701;-82
2022/04/19 16:13:19;;;;;;;;;;;;;;;19.30;41.36;100605.52;104180;1314;74760;-85
2022/04/19 16:16:00;;;;;;;;;;;;;;;;;;;;;
2022/04/19 16:25:03;;;;;;;;;;;;;;;19.26;41.38;100612.36;103208;1320;76395;-82
2022/04/19 16:27:38;;;;;;;;;;;;;;;19.25;41.40;100616.50;104181;1314;61448;-83
2022/04/19 16:30:20;;;;;;;;;;;;;;;19.25;41.48;100620.12;104239;1315;61284;-83
2022/04/19 16:32:53;;;;;;;;;;;;;;;19.24;41.39;100620.86;104143;1315;71803;-83
2022/04/19 16:36:01;;;;;;;;;;;;;;;19.24;41.49;100625.04;103158;1322;76355;-86
2022/04/19 16:38:41;;;;;;;;;;;;;;;;;;;;;